createdAt,value
2019-01-16T00:02:32.898Z,6.80
2019-01-16T00:05:22.508Z,6.90
2019-01-16T00:08:15.707Z,6.80
2019-01-16T00:11:17.757Z,6.90
2019-01-16T00:14:08.032Z,6.90
2019-01-16T00:16:47.996Z,6.90
2019-01-16T00:19:35.438Z,6.90
2019-01-16T00:22:20.007Z,6.90
2019-01-16T00:25:16.136Z,6.80
2019-01-16T00:28:04.944Z,6.90
2019-01-16T00:30:45.286Z,6.90
2019-01-16T00:33:44.598Z,6.90
2019-01-16T00:36:34.958Z,6.90
2019-01-16T00:39:45.942Z,6.90
2019-01-16T00:42:30.186Z,6.80
2019-01-16T00:45:16.184Z,6.80
2019-01-16T00:48:05.583Z,6.80
2019-01-16T00:50:47.091Z,6.90
2019-01-16T00:53:25.693Z,6.90
2019-01-16T00:56:34.466Z,6.90
2019-01-16T01:02:28.550Z,6.90
2019-01-16T01:05:17.796Z,6.90
2019-01-16T01:08:06.619Z,6.90
2019-01-16T01:10:56.697Z,6.90
2019-01-16T01:13:42.083Z,6.90
2019-01-16T01:16:50.355Z,6.90
2019-01-16T01:19:38.738Z,6.80
2019-01-16T01:22:20.222Z,6.80
2019-01-16T01:25:09.291Z,6.80
2019-01-16T01:28:02.292Z,6.80
2019-01-16T01:30:48.091Z,6.80
2019-01-16T01:33:38.729Z,6.80
2019-01-16T01:36:31.805Z,6.80
2019-01-16T01:39:20.631Z,6.80
2019-01-16T01:42:10.850Z,6.80
2019-01-16T01:44:59.586Z,6.80
2019-01-16T01:47:55.954Z,6.80
2019-01-16T01:50:46.396Z,6.90
2019-01-16T01:53:35.100Z,6.90
2019-01-16T01:56:24.169Z,6.90
2019-01-16T01:59:14.158Z,6.90
2019-01-16T02:02:02.855Z,6.80
2019-01-16T02:04:51.484Z,6.80
2019-01-16T02:07:36.306Z,6.80
2019-01-16T02:10:34.658Z,6.80
2019-01-16T02:13:24.832Z,6.70
2019-01-16T02:16:17.938Z,6.70
2019-01-16T02:19:26.252Z,6.70
2019-01-16T02:22:18.786Z,6.70
2019-01-16T02:25:20.824Z,6.70
2019-01-16T02:28:10.823Z,6.70
2019-01-16T02:31:03.859Z,6.70
2019-01-16T02:33:52.527Z,6.70
2019-01-16T02:36:35.253Z,6.70
2019-01-16T02:39:25.590Z,6.70
2019-01-16T02:42:14.327Z,6.70
2019-01-16T02:45:16.463Z,6.70
2019-01-16T02:48:06.393Z,6.70
2019-01-16T02:50:55.090Z,6.70
2019-01-16T02:53:51.210Z,6.80
2019-01-16T02:56:53.233Z,6.70
2019-01-16T02:59:52.503Z,6.70
2019-01-16T03:02:45.295Z,6.70
2019-01-16T03:05:41.233Z,6.70
2019-01-16T03:08:27.020Z,6.70
2019-01-16T03:11:15.883Z,6.70
2019-01-16T03:14:08.800Z,6.70
2019-01-16T03:17:11.149Z,6.60
2019-01-16T03:20:03.784Z,6.70
2019-01-16T03:22:59.969Z,6.60
2019-01-16T03:25:45.607Z,6.60
2019-01-16T03:28:34.602Z,6.60
2019-01-16T03:31:23.536Z,6.60
2019-01-16T03:34:07.851Z,6.60
2019-01-16T03:36:58.178Z,6.50
2019-01-16T03:39:57.753Z,6.60
2019-01-16T03:42:37.381Z,6.60
2019-01-16T03:45:22.365Z,6.50
2019-01-16T03:48:30.833Z,6.50
2019-01-16T03:51:35.963Z,6.40
2019-01-16T03:54:26.213Z,6.30
2019-01-16T03:57:16.162Z,6.10
2019-01-16T04:00:12.434Z,6.10
2019-01-16T04:03:11.730Z,6.10
2019-01-16T04:06:02.857Z,6.00
2019-01-16T04:08:52.061Z,6.00
2019-01-16T04:11:52.739Z,5.90
2019-01-16T04:14:40.985Z,5.90
2019-01-16T04:17:37.650Z,6.00
2019-01-16T04:20:18.020Z,6.00
2019-01-16T04:23:07.772Z,6.00
2019-01-16T04:25:57.286Z,6.00
2019-01-16T04:28:47.292Z,6.00
2019-01-16T04:31:43.534Z,6.00
2019-01-16T04:34:32.622Z,6.00
2019-01-16T04:37:25.611Z,6.00
2019-01-16T04:40:09.515Z,5.90
2019-01-16T04:42:52.785Z,6.00
2019-01-16T04:46:00.925Z,6.00
2019-01-16T04:48:41.313Z,5.90
2019-01-16T04:51:43.473Z,5.90
2019-01-16T04:54:42.436Z,5.90
2019-01-16T04:57:44.649Z,5.90
2019-01-16T05:00:44.560Z,5.90
2019-01-16T05:03:40.915Z,5.90
2019-01-16T05:06:30.986Z,6.00
2019-01-16T05:09:20.978Z,6.00
2019-01-16T05:12:20.298Z,6.00
2019-01-16T05:15:16.247Z,6.00
2019-01-16T05:18:18.682Z,6.00
2019-01-16T05:21:05.526Z,6.10
2019-01-16T05:24:02.374Z,6.10
2019-01-16T05:26:55.596Z,6.10
2019-01-16T05:29:57.474Z,6.10
2019-01-16T05:32:40.483Z,6.10
2019-01-16T05:35:36.993Z,6.00
2019-01-16T05:38:27.385Z,6.00
2019-01-16T05:41:26.633Z,6.10
2019-01-16T05:44:13.941Z,6.10
2019-01-16T05:47:09.419Z,6.10
2019-01-16T05:50:00.783Z,6.00
2019-01-16T05:52:49.877Z,6.00
2019-01-16T05:55:37.722Z,6.10
2019-01-16T05:58:25.753Z,6.10
2019-01-16T06:01:24.721Z,6.10
2019-01-16T06:04:27.152Z,6.00
2019-01-16T06:07:15.975Z,6.00
2019-01-16T06:10:04.806Z,6.10
2019-01-16T06:12:53.873Z,6.10
2019-01-16T06:15:31.685Z,6.10
2019-01-16T06:18:33.708Z,6.10
2019-01-16T06:21:23.714Z,6.10
2019-01-16T06:24:12.593Z,6.20
2019-01-16T06:26:52.717Z,6.10
2019-01-16T06:29:45.718Z,6.10
2019-01-16T06:32:45.107Z,6.10
2019-01-16T06:35:39.119Z,6.20
2019-01-16T06:38:28.066Z,6.20
2019-01-16T06:41:33.583Z,6.20
2019-01-16T06:44:23.584Z,6.20
2019-01-16T06:47:12.559Z,6.20
2019-01-16T06:49:50.871Z,6.20
2019-01-16T06:52:31.060Z,6.20
2019-01-16T06:55:10.638Z,6.20
2019-01-16T06:57:59.235Z,6.20
2019-01-16T07:00:48.331Z,6.20
2019-01-16T07:03:53.184Z,6.20
2019-01-16T07:06:38.241Z,6.30
2019-01-16T07:09:30.543Z,6.30
2019-01-16T07:12:26.604Z,6.30
2019-01-16T07:15:31.937Z,6.30
2019-01-16T07:18:27.730Z,6.30
2019-01-16T07:21:26.729Z,6.20
2019-01-16T07:24:15.647Z,6.20
2019-01-16T07:26:59.927Z,6.30
2019-01-16T07:29:52.744Z,6.30
2019-01-16T07:32:41.590Z,6.30
2019-01-16T07:35:31.596Z,6.30
2019-01-16T07:38:20.487Z,6.30
2019-01-16T07:41:25.907Z,6.30
2019-01-16T07:44:09.682Z,6.30
2019-01-16T07:46:59.701Z,6.30
2019-01-16T07:49:52.513Z,6.40
2019-01-16T07:52:54.434Z,6.40
2019-01-16T07:55:36.385Z,6.30
2019-01-16T07:58:15.334Z,6.30
2019-01-16T08:01:11.146Z,6.30
2019-01-16T08:04:01.212Z,6.30
2019-01-16T08:06:54.291Z,6.40
2019-01-16T08:09:42.731Z,6.40
2019-01-16T08:12:30.479Z,6.30
2019-01-16T08:15:17.495Z,6.40
2019-01-16T08:18:10.638Z,6.40
2019-01-16T08:20:58.290Z,6.50
2019-01-16T08:24:06.449Z,6.50
2019-01-16T08:26:54.972Z,6.50
2019-01-16T08:29:50.853Z,6.50
2019-01-16T08:32:47.130Z,6.50
2019-01-16T08:35:36.102Z,6.60
2019-01-16T08:38:22.458Z,6.50
2019-01-16T08:41:12.458Z,6.50
2019-01-16T08:44:04.506Z,6.60
2019-01-16T08:47:00.283Z,6.60
2019-01-16T08:49:46.497Z,6.60
2019-01-16T08:52:42.596Z,6.60
2019-01-16T08:55:31.499Z,6.70
2019-01-16T08:58:27.361Z,6.70
2019-01-16T09:01:16.031Z,6.70
2019-01-16T09:04:13.628Z,6.70
2019-01-16T09:07:14.418Z,6.70
2019-01-16T09:10:03.372Z,6.70
2019-01-16T09:12:50.928Z,6.70
2019-01-16T09:15:35.027Z,6.70
2019-01-16T09:18:22.799Z,6.70
2019-01-16T09:21:07.372Z,6.70
2019-01-16T09:24:06.586Z,6.70
2019-01-16T09:26:56.659Z,6.70
2019-01-16T09:29:41.863Z,6.70
2019-01-16T09:32:33.594Z,6.80
2019-01-16T09:35:21.766Z,6.80
2019-01-16T09:38:23.839Z,6.80
2019-01-16T09:41:13.816Z,6.70
2019-01-16T09:43:52.879Z,6.70
2019-01-16T09:46:52.187Z,6.70
2019-01-16T09:49:48.327Z,6.60
2019-01-16T09:52:50.652Z,6.60
2019-01-16T09:55:39.471Z,6.60
2019-01-16T09:58:29.472Z,6.60
2019-01-16T10:01:18.082Z,6.70
2019-01-16T10:04:17.145Z,6.80
2019-01-16T10:07:09.911Z,6.80
2019-01-16T10:10:08.858Z,6.70
2019-01-16T10:13:05.106Z,6.70
2019-01-16T10:16:04.397Z,6.70
2019-01-16T10:18:54.822Z,6.70
2019-01-16T10:21:58.461Z,6.70
2019-01-16T10:25:00.850Z,6.80
2019-01-16T10:28:02.852Z,6.90
2019-01-16T10:30:52.944Z,6.90
2019-01-16T10:33:48.065Z,6.90
2019-01-16T10:36:44.021Z,6.80
2019-01-16T10:39:40.259Z,6.80
2019-01-16T10:42:45.649Z,6.70
2019-01-16T10:45:44.253Z,6.60
2019-01-16T10:48:37.555Z,6.60
2019-01-16T10:51:43.523Z,6.70
2019-01-16T10:54:39.274Z,6.60
2019-01-16T10:57:28.095Z,6.60
2019-01-16T11:00:27.067Z,6.50
2019-01-16T11:03:20.211Z,6.50
2019-01-16T11:06:25.338Z,6.50
2019-01-16T11:09:22.181Z,6.50
2019-01-16T11:12:19.170Z,6.60
2019-01-16T11:15:08.196Z,6.80
2019-01-16T11:17:56.860Z,6.80
2019-01-16T11:20:59.122Z,6.80
2019-01-16T11:23:58.467Z,6.80
2019-01-16T11:26:54.257Z,6.90
2019-01-16T11:29:43.123Z,6.80
2019-01-16T11:32:39.168Z,6.80
2019-01-16T11:35:37.038Z,6.80
2019-01-16T11:38:28.351Z,6.90
2019-01-16T11:41:08.056Z,6.90
2019-01-16T11:44:10.792Z,6.90
2019-01-16T11:46:47.291Z,7.00
2019-01-16T11:49:39.119Z,6.90
2019-01-16T11:52:29.812Z,6.90
2019-01-16T11:55:22.878Z,6.90
2019-01-16T11:58:05.704Z,6.90
2019-01-16T12:00:51.544Z,6.90
2019-01-16T12:03:40.389Z,6.90
2019-01-16T12:06:30.389Z,7.00
2019-01-16T12:09:32.998Z,7.00
2019-01-16T12:12:23.355Z,7.10
2019-01-16T12:15:16.175Z,7.10
2019-01-16T12:18:04.840Z,7.10
2019-01-16T12:21:10.178Z,7.00
2019-01-16T12:23:59.488Z,7.00
2019-01-16T12:26:49.638Z,7.00
2019-01-16T12:29:33.253Z,7.00
2019-01-16T12:32:17.805Z,7.00
2019-01-16T12:35:01.394Z,7.00
2019-01-16T12:37:57.250Z,6.90
2019-01-16T12:40:50.342Z,6.90
2019-01-16T12:43:38.953Z,6.90
2019-01-16T12:46:44.117Z,6.80
2019-01-16T12:49:36.046Z,6.80
2019-01-16T12:52:25.041Z,6.80
2019-01-16T12:55:21.151Z,6.80
2019-01-16T12:58:23.434Z,6.70
2019-01-16T13:01:01.829Z,6.60
2019-01-16T13:03:54.586Z,6.60
2019-01-16T13:06:56.572Z,6.50
2019-01-16T13:09:49.582Z,6.50
2019-01-16T13:12:30.264Z,6.50
2019-01-16T13:15:18.768Z,6.50
2019-01-16T13:18:07.412Z,6.50
2019-01-16T13:21:12.540Z,6.50
2019-01-16T13:24:01.577Z,6.60
2019-01-16T13:26:50.622Z,6.60
2019-01-16T13:29:39.447Z,6.60
2019-01-16T13:32:28.186Z,6.70
2019-01-16T13:35:17.146Z,6.60
2019-01-16T13:38:10.371Z,6.60
2019-01-16T13:41:09.294Z,6.60
2019-01-16T13:43:57.737Z,6.70
2019-01-16T13:47:00.851Z,6.50
2019-01-16T13:49:54.043Z,6.50
2019-01-16T13:52:56.303Z,6.40
2019-01-16T13:55:55.615Z,6.30
2019-01-16T13:58:39.202Z,6.30
2019-01-16T14:04:28.414Z,6.40
2019-01-16T14:07:21.475Z,6.40
2019-01-16T14:10:14.089Z,6.40
2019-01-16T14:13:03.156Z,6.40
2019-01-16T14:15:49.453Z,6.50
2019-01-16T14:18:46.046Z,6.50
2019-01-16T14:21:39.037Z,6.50
2019-01-16T14:24:37.834Z,6.50
2019-01-16T14:27:21.649Z,6.50
2019-01-16T14:30:14.368Z,6.50
2019-01-16T14:33:03.147Z,6.60
2019-01-16T14:35:53.337Z,6.70
2019-01-16T14:38:52.308Z,6.70
2019-01-16T14:41:37.314Z,6.50
2019-01-16T14:44:19.340Z,6.40
2019-01-16T14:47:08.477Z,6.40
2019-01-16T14:49:56.308Z,6.50
2019-01-16T14:52:45.025Z,6.50
2019-01-16T14:55:34.018Z,6.50
2019-01-16T14:58:14.038Z,6.50
2019-01-16T15:01:13.728Z,6.40
2019-01-16T15:04:02.161Z,6.30
2019-01-16T15:06:50.417Z,6.30
2019-01-16T15:09:46.335Z,6.30
2019-01-16T15:12:55.301Z,6.40
2019-01-16T15:18:12.705Z,6.30
2019-01-16T15:21:01.802Z,6.30
2019-01-16T15:23:50.822Z,6.30
2019-01-16T15:26:40.806Z,6.20
2019-01-16T15:29:30.812Z,6.20
2019-01-16T15:32:23.612Z,6.10
2019-01-16T15:35:11.955Z,6.10
2019-01-16T15:37:55.735Z,6.10
2019-01-16T15:40:48.539Z,6.10
2019-01-16T15:43:35.071Z,6.10
2019-01-16T15:46:23.974Z,6.10
2019-01-16T15:49:12.799Z,6.10
2019-01-16T15:52:02.830Z,6.10
2019-01-16T15:55:07.968Z,6.10
2019-01-16T15:57:56.718Z,6.10
2019-01-16T16:01:04.867Z,6.10
2019-01-16T16:03:45.500Z,6.10
2019-01-16T16:06:35.500Z,6.10
2019-01-16T16:09:26.404Z,6.10
2019-01-16T16:12:16.802Z,6.10
2019-01-16T16:15:09.575Z,6.10
2019-01-16T16:17:47.040Z,6.10
2019-01-16T16:20:41.972Z,6.10
2019-01-16T16:23:35.273Z,6.10
2019-01-16T16:26:34.541Z,6.00
2019-01-16T16:29:32.906Z,6.00
2019-01-16T16:32:25.964Z,6.00
2019-01-16T16:35:17.250Z,6.00
2019-01-16T16:38:06.208Z,6.00
2019-01-16T16:40:57.741Z,6.00
2019-01-16T16:43:46.447Z,6.00
2019-01-16T16:46:54.862Z,6.00
2019-01-16T16:49:33.287Z,5.90
2019-01-16T16:52:25.926Z,5.90
2019-01-16T16:55:19.744Z,5.90
2019-01-16T16:58:08.794Z,6.00
2019-01-16T17:01:08.321Z,6.00
2019-01-16T17:04:04.535Z,6.00
2019-01-16T17:07:13.074Z,5.90
2019-01-16T17:09:51.787Z,6.00
2019-01-16T17:12:55.191Z,6.00
2019-01-16T17:15:51.534Z,6.00
2019-01-16T17:18:47.721Z,6.00
2019-01-16T17:21:36.708Z,6.00
2019-01-16T17:24:39.234Z,6.00
2019-01-16T17:27:38.382Z,5.90
2019-01-16T17:30:32.135Z,5.90
2019-01-16T17:33:24.979Z,5.90
2019-01-16T17:36:21.998Z,5.90
2019-01-16T17:39:21.315Z,5.90
2019-01-16T17:42:20.333Z,5.90
2019-01-16T17:45:13.292Z,5.90
2019-01-16T17:48:12.607Z,5.90
2019-01-16T17:51:02.571Z,5.90
2019-01-16T17:53:52.490Z,5.90
2019-01-16T17:56:51.784Z,5.90
2019-01-16T17:59:42.025Z,5.90
2019-01-16T18:02:41.263Z,5.90
2019-01-16T18:05:34.306Z,5.90
2019-01-16T18:08:23.481Z,5.90
2019-01-16T18:11:12.495Z,5.90
2019-01-16T18:14:06.708Z,6.00
2019-01-16T18:17:00.440Z,6.00
2019-01-16T18:19:49.307Z,6.00
2019-01-16T18:22:46.353Z,6.00
2019-01-16T18:25:48.771Z,6.00
2019-01-16T18:28:37.654Z,6.00
2019-01-16T18:31:36.992Z,6.00
2019-01-16T18:34:27.146Z,6.00
2019-01-16T18:37:23.264Z,5.90
2019-01-16T18:40:09.186Z,6.00
2019-01-16T18:43:05.482Z,6.10
2019-01-16T18:45:48.525Z,6.00
2019-01-16T18:48:39.811Z,6.00
2019-01-16T18:51:47.911Z,6.00
2019-01-16T18:54:33.562Z,6.00
2019-01-16T18:57:22.402Z,6.00
2019-01-16T19:00:30.889Z,6.10
2019-01-16T19:03:30.223Z,6.10
2019-01-16T19:06:20.201Z,6.10
2019-01-16T19:09:13.962Z,6.10
2019-01-16T19:12:04.019Z,6.00
2019-01-16T19:14:52.702Z,6.10
2019-01-16T19:17:50.208Z,6.10
2019-01-16T19:20:43.504Z,6.00
2019-01-16T19:23:36.906Z,6.00
2019-01-16T19:26:27.083Z,6.00
2019-01-16T19:29:29.424Z,6.00
2019-01-16T19:32:25.404Z,6.00
2019-01-16T19:35:15.448Z,5.90
2019-01-16T19:38:05.511Z,6.00
2019-01-16T19:41:04.674Z,6.00
2019-01-16T19:44:06.796Z,6.00
2019-01-16T19:46:55.543Z,5.90
2019-01-16T19:49:37.994Z,5.90
2019-01-16T19:52:17.191Z,5.90
2019-01-16T19:55:16.382Z,5.90
2019-01-16T19:58:03.536Z,5.90
2019-01-16T20:00:51.017Z,5.90
2019-01-16T20:03:46.962Z,5.80
2019-01-16T20:06:42.664Z,5.90
2019-01-16T20:09:45.035Z,5.80
2019-01-16T20:12:44.238Z,5.80
2019-01-16T20:15:23.186Z,5.80
2019-01-16T20:18:12.731Z,5.80
2019-01-16T20:21:02.751Z,5.80
2019-01-16T20:24:05.066Z,5.80
2019-01-16T20:27:00.147Z,5.80
2019-01-16T20:29:53.964Z,5.80
2019-01-16T20:32:43.927Z,5.80
2019-01-16T20:35:29.751Z,5.80
2019-01-16T20:38:18.611Z,5.90
2019-01-16T20:41:07.292Z,5.80
2019-01-16T20:44:07.327Z,5.80
2019-01-16T20:47:06.606Z,5.80
2019-01-16T20:50:05.785Z,5.80
2019-01-16T20:53:17.579Z,5.80
2019-01-16T20:56:00.856Z,5.80
2019-01-16T20:58:49.129Z,5.80
2019-01-16T21:01:31.595Z,5.80
2019-01-16T21:04:20.267Z,5.70
2019-01-16T21:07:05.463Z,5.70
2019-01-16T21:09:54.560Z,5.70
2019-01-16T21:12:44.535Z,5.70
2019-01-16T21:15:34.772Z,5.70
2019-01-16T21:18:24.627Z,5.70
2019-01-16T21:21:23.573Z,5.70
2019-01-16T21:24:08.616Z,5.70
2019-01-16T21:26:57.533Z,5.70
2019-01-16T21:29:48.505Z,5.80
2019-01-16T21:32:44.697Z,5.80
2019-01-16T21:35:34.698Z,5.80
2019-01-16T21:38:27.771Z,5.80
2019-01-16T21:41:32.983Z,5.70
2019-01-16T21:44:23.076Z,5.70
2019-01-16T21:47:12.006Z,5.70
2019-01-16T21:50:08.267Z,5.70
2019-01-16T21:53:04.163Z,5.80
2019-01-16T21:55:54.309Z,5.70
2019-01-16T21:58:44.184Z,5.70
2019-01-16T22:01:32.114Z,5.70
2019-01-16T22:04:10.971Z,5.80
2019-01-16T22:07:01.014Z,5.80
2019-01-16T22:09:49.828Z,5.70
2019-01-16T22:12:29.325Z,5.70
2019-01-16T22:15:08.988Z,5.80
2019-01-16T22:18:04.886Z,5.80
2019-01-16T22:20:54.959Z,5.80
2019-01-16T22:23:43.913Z,5.80
2019-01-16T22:26:43.028Z,5.80
2019-01-16T22:29:33.074Z,5.70
2019-01-16T22:32:23.152Z,5.70
2019-01-16T22:35:10.562Z,5.70
2019-01-16T22:37:55.428Z,5.80
2019-01-16T22:40:45.423Z,5.80
2019-01-16T22:43:48.210Z,5.80
2019-01-16T22:46:41.921Z,5.80
2019-01-16T22:49:41.105Z,5.70
2019-01-16T22:52:34.043Z,5.70
2019-01-16T22:55:24.323Z,5.70
2019-01-16T22:58:04.800Z,5.70
2019-01-16T23:01:00.454Z,5.70
2019-01-16T23:03:56.311Z,5.60
2019-01-16T23:06:49.334Z,5.60
2019-01-16T23:09:38.812Z,5.60
2019-01-16T23:12:27.377Z,5.50
2019-01-16T23:15:16.432Z,5.40
2019-01-16T23:18:05.456Z,5.40
2019-01-16T23:21:10.984Z,5.40
2019-01-16T23:23:38.976Z,5.40
2019-01-16T23:26:32.002Z,5.30
2019-01-16T23:29:14.188Z,5.30
2019-01-16T23:32:10.408Z,5.30
2019-01-16T23:35:09.833Z,5.30
2019-01-16T23:37:58.719Z,5.30
2019-01-16T23:40:43.709Z,5.20
2019-01-16T23:43:42.440Z,5.20
2019-01-16T23:46:32.477Z,5.10
2019-01-16T23:49:22.443Z,5.10
2019-01-16T23:52:02.482Z,5.10
2019-01-16T23:54:58.678Z,5.10
2019-01-16T23:57:57.652Z,5.10
